sensor_id;sensor_type;location;lat;lon;timestamp;pressure;altitude;pressure_sealevel;temperature;humidity
55077;BME280;40971;44.702;11.030;2024-02-26T00:09:05;100698.03;;;5.13;100.00
55077;BME280;40971;44.702;11.030;2024-02-26T00:19:08;100671.78;;;5.05;100.00
55077;BME280;40971;44.702;11.030;2024-02-26T00:29:09;100654.69;;;4.92;100.00
55077;BME280;40971;44.702;11.030;2024-02-26T00:39:12;100638.63;;;5.38;100.00
55077;BME280;40971;44.702;11.030;2024-02-26T00:49:14;100621.50;;;4.84;100.00
55077;BME280;40971;44.702;11.030;2024-02-26T00:59:16;100610.47;;;5.01;100.00
55077;BME280;40971;44.702;11.030;2024-02-26T01:09:18;100592.06;;;5.23;100.00
55077;BME280;40971;44.702;11.030;2024-02-26T01:19:23;100594.72;;;5.33;100.00
55077;BME280;40971;44.702;11.030;2024-02-26T01:29:26;100587.41;;;5.27;100.00
55077;BME280;40971;44.702;11.030;2024-02-26T01:39:28;100574.34;;;5.17;100.00
55077;BME280;40971;44.702;11.030;2024-02-26T01:49:33;100567.53;;;4.96;100.00
55077;BME280;40971;44.702;11.030;2024-02-26T01:59:37;100545.31;;;4.92;100.00
55077;BME280;40971;44.702;11.030;2024-02-26T02:09:41;100549.50;;;4.83;100.00
55077;BME280;40971;44.702;11.030;2024-02-26T02:19:46;100523.00;;;4.38;100.00
55077;BME280;40971;44.702;11.030;2024-02-26T02:29:48;100511.41;;;3.69;100.00
55077;BME280;40971;44.702;11.030;2024-02-26T02:39:50;100503.94;;;3.96;100.00
55077;BME280;40971;44.702;11.030;2024-02-26T02:49:51;100501.19;;;4.30;100.00
55077;BME280;40971;44.702;11.030;2024-02-26T02:59:54;100494.72;;;4.24;100.00
55077;BME280;40971;44.702;11.030;2024-02-26T03:09:55;100481.47;;;4.37;100.00
55077;BME280;40971;44.702;11.030;2024-02-26T03:19:58;100482.09;;;4.50;100.00
55077;BME280;40971;44.702;11.030;2024-02-26T03:30:00;100497.25;;;4.15;100.00
55077;BME280;40971;44.702;11.030;2024-02-26T03:40:01;100487.84;;;4.44;100.00
55077;BME280;40971;44.702;11.030;2024-02-26T03:50:03;100489.00;;;4.60;100.00
55077;BME280;40971;44.702;11.030;2024-02-26T04:00:06;100483.56;;;4.73;100.00
55077;BME280;40971;44.702;11.030;2024-02-26T04:10:12;100480.97;;;4.73;100.00
55077;BME280;40971;44.702;11.030;2024-02-26T04:20:16;100477.41;;;4.74;100.00
55077;BME280;40971;44.702;11.030;2024-02-26T04:30:18;100492.69;;;4.88;100.00
55077;BME280;40971;44.702;11.030;2024-02-26T04:40:19;100487.63;;;4.96;100.00
55077;BME280;40971;44.702;11.030;2024-02-26T04:50:21;100485.47;;;5.20;100.00
55077;BME280;40971;44.702;11.030;2024-02-26T05:00:22;100494.31;;;4.89;100.00
55077;BME280;40971;44.702;11.030;2024-02-26T05:10:24;100491.69;;;4.89;100.00
55077;BME280;40971;44.702;11.030;2024-02-26T05:20:25;100495.13;;;4.80;100.00
55077;BME280;40971;44.702;11.030;2024-02-26T05:30:27;100496.00;;;4.60;100.00
55077;BME280;40971;44.702;11.030;2024-02-26T05:40:29;100482.66;;;4.53;100.00
55077;BME280;40971;44.702;11.030;2024-02-26T05:50:31;100500.59;;;4.77;100.00
55077;BME280;40971;44.702;11.030;2024-02-26T06:00:35;100508.25;;;4.79;100.00
55077;BME280;40971;44.702;11.030;2024-02-26T06:10:38;100527.78;;;4.94;100.00
55077;BME280;40971;44.702;11.030;2024-02-26T06:20:41;100530.56;;;5.02;100.00
55077;BME280;40971;44.702;11.030;2024-02-26T06:30:45;100529.88;;;5.09;100.00
55077;BME280;40971;44.702;11.030;2024-02-26T06:40:48;100542.50;;;5.04;100.00
55077;BME280;40971;44.702;11.030;2024-02-26T06:50:51;100567.91;;;5.21;100.00
55077;BME280;40971;44.702;11.030;2024-02-26T07:00:53;100566.03;;;5.43;100.00
55077;BME280;40971;44.702;11.030;2024-02-26T07:10:55;100578.66;;;5.47;100.00
55077;BME280;40971;44.702;11.030;2024-02-26T07:20:57;100574.28;;;5.48;100.00
55077;BME280;40971;44.702;11.030;2024-02-26T07:31:00;100575.97;;;5.58;100.00
55077;BME280;40971;44.702;11.030;2024-02-26T07:41:03;100565.94;;;5.54;100.00
55077;BME280;40971;44.702;11.030;2024-02-26T07:51:05;100566.34;;;5.59;100.00
55077;BME280;40971;44.702;11.030;2024-02-26T08:01:09;100558.41;;;5.60;100.00
55077;BME280;40971;44.702;11.030;2024-02-26T08:11:15;100549.06;;;5.58;100.00
55077;BME280;40971;44.702;11.030;2024-02-26T08:21:17;100533.44;;;5.77;100.00
55077;BME280;40971;44.702;11.030;2024-02-26T08:31:19;100533.56;;;6.23;100.00
55077;BME280;40971;44.702;11.030;2024-02-26T08:41:20;100520.28;;;6.63;100.00
55077;BME280;40971;44.702;11.030;2024-02-26T08:51:21;100495.19;;;6.89;100.00
55077;BME280;40971;44.702;11.030;2024-02-26T09:01:24;100480.53;;;7.41;100.00
55077;BME280;40971;44.702;11.030;2024-02-26T09:11:26;100492.44;;;7.71;94.61
55077;BME280;40971;44.702;11.030;2024-02-26T09:21:29;100470.13;;;7.85;93.85
55077;BME280;40971;44.702;11.030;2024-02-26T09:31:33;100469.09;;;7.95;95.41
55077;BME280;40971;44.702;11.030;2024-02-26T09:41:34;100454.72;;;7.99;93.76
55077;BME280;40971;44.702;11.030;2024-02-26T09:51:36;100448.69;;;8.07;96.40
55077;BME280;40971;44.702;11.030;2024-02-26T10:01:42;100453.53;;;8.37;96.11
55077;BME280;40971;44.702;11.030;2024-02-26T10:11:43;100462.09;;;8.47;95.43
55077;BME280;40971;44.702;11.030;2024-02-26T10:21:48;100469.94;;;8.47;92.74
55077;BME280;40971;44.702;11.030;2024-02-26T10:31:50;100473.97;;;8.67;90.49
55077;BME280;40971;44.702;11.030;2024-02-26T10:41:51;100470.38;;;8.68;90.40
55077;BME280;40971;44.702;11.030;2024-02-26T10:51:56;100458.13;;;8.77;90.37
55077;BME280;40971;44.702;11.030;2024-02-26T11:02:00;100454.63;;;8.68;89.56
55077;BME280;40971;44.702;11.030;2024-02-26T11:12:02;100467.81;;;8.76;88.19
55077;BME280;40971;44.702;11.030;2024-02-26T11:22:05;100454.34;;;8.79;89.04
55077;BME280;40971;44.702;11.030;2024-02-26T11:32:06;100446.13;;;8.66;88.87
55077;BME280;40971;44.702;11.030;2024-02-26T11:42:08;100440.88;;;8.66;90.90
55077;BME280;40971;44.702;11.030;2024-02-26T11:52:10;100427.84;;;8.83;92.66
55077;BME280;40971;44.702;11.030;2024-02-26T12:02:12;100427.19;;;8.81;94.22
55077;BME280;40971;44.702;11.030;2024-02-26T12:12:18;100418.97;;;8.75;96.96
55077;BME280;40971;44.702;11.030;2024-02-26T12:22:20;100418.47;;;8.72;99.26
55077;BME280;40971;44.702;11.030;2024-02-26T12:32:24;100407.19;;;8.79;100.00
55077;BME280;40971;44.702;11.030;2024-02-26T12:42:25;100387.25;;;9.03;100.00
55077;BME280;40971;44.702;11.030;2024-02-26T12:52:49;100388.09;;;9.11;100.00
55077;BME280;40971;44.702;11.030;2024-02-26T13:02:54;100399.09;;;9.23;100.00
55077;BME280;40971;44.702;11.030;2024-02-26T13:12:58;100405.00;;;9.25;100.00
55077;BME280;40971;44.702;11.030;2024-02-26T13:23:04;100376.31;;;9.40;100.00
55077;BME280;40971;44.702;11.030;2024-02-26T13:33:11;100348.91;;;9.74;100.00
55077;BME280;40971;44.702;11.030;2024-02-26T13:43:13;100354.91;;;10.07;96.34
55077;BME280;40971;44.702;11.030;2024-02-26T13:53:14;100358.47;;;10.38;89.85
55077;BME280;40971;44.702;11.030;2024-02-26T14:03:16;100342.88;;;10.29;90.66
55077;BME280;40971;44.702;11.030;2024-02-26T14:13:21;100330.59;;;10.21;90.94
55077;BME280;40971;44.702;11.030;2024-02-26T14:23:22;100324.56;;;10.13;88.98
55077;BME280;40971;44.702;11.030;2024-02-26T14:33:23;100333.94;;;9.91;86.20
55077;BME280;40971;44.702;11.030;2024-02-26T14:43:25;100324.31;;;9.67;86.97
55077;BME280;40971;44.702;11.030;2024-02-26T14:53:26;100319.69;;;9.77;87.19
55077;BME280;40971;44.702;11.030;2024-02-26T15:03:28;100333.50;;;9.63;83.92
55077;BME280;40971;44.702;11.030;2024-02-26T15:13:29;100301.56;;;9.52;84.71
55077;BME280;40971;44.702;11.030;2024-02-26T15:23:30;100322.06;;;9.48;84.63
55077;BME280;40971;44.702;11.030;2024-02-26T15:33:32;100313.19;;;9.49;86.54
55077;BME280;40971;44.702;11.030;2024-02-26T15:43:33;100321.06;;;9.57;87.59
55077;BME280;40971;44.702;11.030;2024-02-26T15:53:34;100321.22;;;9.48;89.83
55077;BME280;40971;44.702;11.030;2024-02-26T16:03:37;100325.00;;;9.45;91.82
55077;BME280;40971;44.702;11.030;2024-02-26T16:13:38;100323.38;;;9.36;93.69
55077;BME280;40971;44.702;11.030;2024-02-26T16:23:39;100332.56;;;9.32;94.19
55077;BME280;40971;44.702;11.030;2024-02-26T16:33:41;100355.03;;;9.26;93.77
55077;BME280;40971;44.702;11.030;2024-02-26T16:43:42;100367.63;;;9.15;94.72
55077;BME280;40971;44.702;11.030;2024-02-26T16:53:43;100361.88;;;9.11;95.52
55077;BME280;40971;44.702;11.030;2024-02-26T17:03:44;100379.09;;;9.14;96.21
55077;BME280;40971;44.702;11.030;2024-02-26T17:13:45;100356.75;;;8.94;100.00
55077;BME280;40971;44.702;11.030;2024-02-26T17:23:46;100360.72;;;8.90;100.00
55077;BME280;40971;44.702;11.030;2024-02-26T17:33:49;100385.56;;;8.77;100.00
55077;BME280;40971;44.702;11.030;2024-02-26T17:43:50;100396.88;;;8.78;100.00
55077;BME280;40971;44.702;11.030;2024-02-26T17:53:51;100405.91;;;8.92;100.00
55077;BME280;40971;44.702;11.030;2024-02-26T18:03:52;100414.94;;;8.89;100.00
55077;BME280;40971;44.702;11.030;2024-02-26T18:13:54;100412.47;;;8.88;100.00
55077;BME280;40971;44.702;11.030;2024-02-26T18:23:57;100402.00;;;8.88;100.00
55077;BME280;40971;44.702;11.030;2024-02-26T18:33:58;100419.84;;;8.92;100.00
55077;BME280;40971;44.702;11.030;2024-02-26T18:43:59;100434.75;;;8.92;100.00
55077;BME280;40971;44.702;11.030;2024-02-26T18:54:04;100422.38;;;9.10;100.00
55077;BME280;40971;44.702;11.030;2024-02-26T19:04:07;100411.56;;;9.21;100.00
55077;BME280;40971;44.702;11.030;2024-02-26T19:14:12;100427.97;;;9.23;100.00
55077;BME280;40971;44.702;11.030;2024-02-26T19:24:15;100422.19;;;9.19;100.00
55077;BME280;40971;44.702;11.030;2024-02-26T19:34:19;100436.66;;;9.23;100.00
55077;BME280;40971;44.702;11.030;2024-02-26T19:44:20;100455.13;;;9.14;100.00
55077;BME280;40971;44.702;11.030;2024-02-26T19:54:22;100468.03;;;8.99;100.00
55077;BME280;40971;44.702;11.030;2024-02-26T20:04:24;100493.88;;;8.86;100.00
55077;BME280;40971;44.702;11.030;2024-02-26T20:14:29;100503.47;;;8.69;100.00
55077;BME280;40971;44.702;11.030;2024-02-26T20:24:31;100496.53;;;8.60;100.00
55077;BME280;40971;44.702;11.030;2024-02-26T20:34:33;100486.19;;;8.51;100.00
55077;BME280;40971;44.702;11.030;2024-02-26T20:44:37;100489.72;;;8.42;100.00
55077;BME280;40971;44.702;11.030;2024-02-26T20:54:39;100494.44;;;8.38;100.00
55077;BME280;40971;44.702;11.030;2024-02-26T21:04:43;100491.94;;;8.29;100.00
55077;BME280;40971;44.702;11.030;2024-02-26T21:14:46;100481.03;;;8.23;100.00
55077;BME280;40971;44.702;11.030;2024-02-26T21:24:50;100486.63;;;8.20;100.00
55077;BME280;40971;44.702;11.030;2024-02-26T21:34:52;100478.50;;;8.06;100.00
55077;BME280;40971;44.702;11.030;2024-02-26T21:44:54;100481.34;;;7.95;100.00
55077;BME280;40971;44.702;11.030;2024-02-26T21:54:56;100492.56;;;7.87;100.00
55077;BME280;40971;44.702;11.030;2024-02-26T22:05:00;100466.56;;;7.86;100.00
55077;BME280;40971;44.702;11.030;2024-02-26T22:15:03;100453.09;;;7.81;100.00
55077;BME280;40971;44.702;11.030;2024-02-26T22:25:06;100454.06;;;7.80;100.00
55077;BME280;40971;44.702;11.030;2024-02-26T22:35:08;100457.09;;;7.67;100.00
55077;BME280;40971;44.702;11.030;2024-02-26T22:45:12;100449.97;;;7.59;100.00
55077;BME280;40971;44.702;11.030;2024-02-26T22:55:16;100449.47;;;7.56;100.00
55077;BME280;40971;44.702;11.030;2024-02-26T23:05:22;100432.28;;;7.53;100.00
55077;BME280;40971;44.702;11.030;2024-02-26T23:15:25;100412.44;;;7.51;100.00
55077;BME280;40971;44.702;11.030;2024-02-26T23:25:28;100394.00;;;7.52;100.00
55077;BME280;40971;44.702;11.030;2024-02-26T23:35:30;100367.84;;;7.52;100.00
55077;BME280;40971;44.702;11.030;2024-02-26T23:45:31;100348.94;;;7.58;100.00
55077;BME280;40971;44.702;11.030;2024-02-26T23:55:33;100358.41;;;7.59;100.00
